createdAt,value
2022-12-04T00:01:15.134Z,69.40
2022-12-04T00:03:42.112Z,69.40
2022-12-04T00:06:14.044Z,69.16
2022-12-04T00:08:41.066Z,69.10
2022-12-04T00:11:09.683Z,69.27
2022-12-04T00:13:36.800Z,69.34
2022-12-04T00:16:12.175Z,69.11
2022-12-04T00:18:38.720Z,69.22
2022-12-04T00:21:10.777Z,69.09
2022-12-04T00:23:38.788Z,69.36
2022-12-04T00:26:08.982Z,69.29
2022-12-04T00:28:36.626Z,69.14
2022-12-04T00:31:09.482Z,69.26
2022-12-04T00:33:36.108Z,69.51
2022-12-04T00:36:05.819Z,69.17
2022-12-04T00:38:32.304Z,69.39
2022-12-04T00:41:00.747Z,69.37
2022-12-04T00:43:28.349Z,69.44
2022-12-04T00:45:55.215Z,69.49
2022-12-04T00:48:21.911Z,69.45
2022-12-04T00:50:48.647Z,69.27
2022-12-04T00:53:15.359Z,69.42
2022-12-04T00:55:43.387Z,69.48
2022-12-04T00:58:11.126Z,69.32
2022-12-04T01:00:39.982Z,69.27
2022-12-04T01:03:08.067Z,69.40
2022-12-04T01:05:39.608Z,69.39
2022-12-04T01:08:06.874Z,69.26
2022-12-04T01:10:33.728Z,69.32
2022-12-04T01:13:00.145Z,69.29
2022-12-04T01:15:26.609Z,69.31
2022-12-04T01:17:53.007Z,69.45
2022-12-04T01:20:19.558Z,69.51
2022-12-04T01:22:45.952Z,69.53
2022-12-04T01:25:12.389Z,69.40
2022-12-04T01:27:38.798Z,69.35
2022-12-04T01:30:05.908Z,69.47
2022-12-04T01:32:32.281Z,69.39
2022-12-04T01:34:58.707Z,69.47
2022-12-04T01:37:25.106Z,69.30
2022-12-04T01:39:51.487Z,69.11
2022-12-04T01:53:47.211Z,68.64
2022-12-04T01:56:14.612Z,69.48
2022-12-04T01:58:46.433Z,69.75
2022-12-04T02:01:13.254Z,70.11
2022-12-04T02:03:39.933Z,70.13
2022-12-04T02:06:07.317Z,70.29
2022-12-04T02:08:35.927Z,70.43
2022-12-04T02:11:17.806Z,70.49
2022-12-04T02:14:02.349Z,70.28
2022-12-04T02:16:42.350Z,70.41
2022-12-04T02:19:34.109Z,70.14
2022-12-04T02:22:08.803Z,70.23
2022-12-04T02:25:17.824Z,70.20
2022-12-04T02:28:03.314Z,70.20
2022-12-04T02:30:31.922Z,70.24
2022-12-04T02:34:07.450Z,70.01
2022-12-04T02:36:47.867Z,69.96
2022-12-04T02:39:28.067Z,70.03
2022-12-04T02:41:59.881Z,70.05
2022-12-04T02:44:35.748Z,70.03
2022-12-04T02:47:06.959Z,70.03
2022-12-04T02:49:47.408Z,69.85
2022-12-04T02:52:18.840Z,70.06
2022-12-04T02:54:50.382Z,69.83
2022-12-04T02:57:29.582Z,69.83
2022-12-04T02:59:59.060Z,69.82
2022-12-04T03:02:33.442Z,69.76
2022-12-04T03:05:05.115Z,69.69
2022-12-04T03:07:37.976Z,69.77
2022-12-04T03:10:12.016Z,69.75
2022-12-04T03:12:45.516Z,70.02
2022-12-04T03:15:20.326Z,69.51
2022-12-04T03:18:02.808Z,69.93
2022-12-04T03:20:34.478Z,69.55
2022-12-04T03:23:09.734Z,69.62
2022-12-04T03:25:45.568Z,69.79
2022-12-04T03:28:24.245Z,69.52
2022-12-04T03:30:59.340Z,69.42
2022-12-04T03:33:34.387Z,69.54
2022-12-04T03:36:25.357Z,69.37
2022-12-04T03:39:01.660Z,69.39
2022-12-04T03:41:52.965Z,69.35
2022-12-04T03:44:44.004Z,69.38
2022-12-04T03:47:17.126Z,69.48
2022-12-04T03:49:49.386Z,69.35
2022-12-04T03:52:32.308Z,69.23
2022-12-04T03:55:09.082Z,69.42
2022-12-04T03:57:42.575Z,69.48
2022-12-04T04:00:21.317Z,69.34
2022-12-04T04:03:35.826Z,69.29
2022-12-04T04:06:09.723Z,69.40
2022-12-04T04:08:38.887Z,69.27
2022-12-04T04:11:23.585Z,69.68
2022-12-04T04:14:21.311Z,69.32
2022-12-04T04:17:13.977Z,69.54
2022-12-04T04:20:01.396Z,69.63
2022-12-04T04:22:49.384Z,69.63
2022-12-04T04:25:24.277Z,69.43
2022-12-04T04:27:53.460Z,69.55
2022-12-04T04:30:20.577Z,69.39
2022-12-04T04:33:02.646Z,69.44
2022-12-04T04:35:41.201Z,69.65
2022-12-04T04:38:21.381Z,69.34
2022-12-04T04:41:15.884Z,69.19
2022-12-04T04:43:45.434Z,69.36
2022-12-04T04:46:18.772Z,69.54
2022-12-04T04:48:50.753Z,69.61
2022-12-04T04:51:18.536Z,69.63
2022-12-04T04:53:49.047Z,69.51
2022-12-04T04:56:15.974Z,69.46
2022-12-04T04:58:43.043Z,69.44
2022-12-04T05:01:16.037Z,69.44
2022-12-04T05:03:43.051Z,69.61
2022-12-04T05:06:10.243Z,69.49
2022-12-04T05:08:37.396Z,69.61
2022-12-04T05:11:05.147Z,69.51
2022-12-04T05:13:32.480Z,69.46
2022-12-04T05:16:01.613Z,69.24
2022-12-04T05:18:28.977Z,69.29
2022-12-04T05:20:56.175Z,69.25
2022-12-04T05:23:22.885Z,69.26
2022-12-04T05:25:49.601Z,69.29
2022-12-04T05:28:16.677Z,69.51
2022-12-04T05:30:43.260Z,69.35
2022-12-04T05:33:11.185Z,69.56
2022-12-04T05:35:37.999Z,69.36
2022-12-04T05:38:04.637Z,69.42
2022-12-04T05:40:31.140Z,69.25
2022-12-04T05:42:57.724Z,69.31
2022-12-04T05:45:24.441Z,69.08
2022-12-04T05:47:50.949Z,69.34
2022-12-04T05:50:17.488Z,69.69
2022-12-04T05:52:44.050Z,69.21
2022-12-04T05:55:10.665Z,69.40
2022-12-04T05:57:37.182Z,69.32
2022-12-04T06:00:05.111Z,69.28
2022-12-04T06:02:37.945Z,69.21
2022-12-04T06:05:05.105Z,69.44
2022-12-04T06:07:31.682Z,69.48
2022-12-04T06:09:58.618Z,69.40
2022-12-04T06:12:25.186Z,69.43
2022-12-04T06:14:51.709Z,69.37
2022-12-04T06:17:18.324Z,69.32
2022-12-04T06:19:44.806Z,69.42
2022-12-04T06:22:11.309Z,69.34
2022-12-04T06:24:38.573Z,69.20
2022-12-04T06:27:26.629Z,69.43
2022-12-04T06:29:51.696Z,69.32
2022-12-04T06:32:21.862Z,69.32
2022-12-04T06:34:53.610Z,69.41
2022-12-04T06:37:22.024Z,69.43
2022-12-04T06:39:48.651Z,69.60
2022-12-04T06:42:15.254Z,69.37
2022-12-04T06:44:41.803Z,69.54
2022-12-04T06:47:09.110Z,69.41
2022-12-04T06:49:36.275Z,69.41
2022-12-04T06:52:03.305Z,69.53
2022-12-04T06:54:29.895Z,69.38
2022-12-04T06:56:56.428Z,69.61
2022-12-04T06:59:22.954Z,69.43
2022-12-04T07:01:49.814Z,69.48
2022-12-04T07:04:16.461Z,69.08
2022-12-04T07:06:43.004Z,69.43
2022-12-04T07:09:17.793Z,69.35
2022-12-04T07:11:45.672Z,69.58
2022-12-04T07:14:13.429Z,69.52
2022-12-04T07:16:42.337Z,69.71
2022-12-04T07:19:14.361Z,69.53
2022-12-04T07:21:41.694Z,69.59
2022-12-04T07:24:14.864Z,69.46
2022-12-04T07:26:41.676Z,69.66
2022-12-04T07:29:08.426Z,69.73
2022-12-04T07:31:35.041Z,69.55
2022-12-04T07:34:02.006Z,69.52
2022-12-04T07:36:28.582Z,69.73
2022-12-04T07:38:56.230Z,69.65
2022-12-04T07:41:23.253Z,69.46
2022-12-04T07:43:49.823Z,69.46
2022-12-04T07:46:26.360Z,69.59
2022-12-04T07:48:56.524Z,69.58
2022-12-04T07:51:28.440Z,69.54
2022-12-04T07:54:02.069Z,69.48
2022-12-04T07:56:30.234Z,69.53
2022-12-04T07:58:57.180Z,69.40
2022-12-04T08:01:24.297Z,69.37
2022-12-04T08:03:54.718Z,69.52
2022-12-04T08:06:22.849Z,69.63
2022-12-04T08:08:49.918Z,69.63
2022-12-04T08:11:19.909Z,69.64
2022-12-04T08:13:46.443Z,69.52
2022-12-04T08:16:14.254Z,69.61
2022-12-04T08:18:46.467Z,69.59
2022-12-04T08:21:16.422Z,69.60
2022-12-04T08:23:44.267Z,69.84
2022-12-04T08:26:11.561Z,69.77
2022-12-04T08:28:38.822Z,69.58
2022-12-04T08:31:07.752Z,69.73
2022-12-04T08:33:35.326Z,69.84
2022-12-04T08:36:02.350Z,69.97
2022-12-04T08:38:28.878Z,69.61
2022-12-04T08:40:59.853Z,69.57
2022-12-04T08:43:26.482Z,69.66
2022-12-04T08:46:02.204Z,69.65
2022-12-04T08:48:29.220Z,69.63
2022-12-04T08:50:56.223Z,69.67
2022-12-04T08:53:23.440Z,69.60
2022-12-04T08:55:51.059Z,69.68
2022-12-04T08:58:17.665Z,69.84
2022-12-04T09:00:44.678Z,69.66
2022-12-04T09:03:16.749Z,69.81
2022-12-04T09:05:45.872Z,69.88
2022-12-04T09:08:17.697Z,69.75
2022-12-04T09:10:44.565Z,69.90
2022-12-04T09:13:11.066Z,69.93
2022-12-04T09:15:41.063Z,69.89
2022-12-04T09:18:08.811Z,69.77
2022-12-04T09:20:35.960Z,69.63
2022-12-04T09:23:05.186Z,69.59
2022-12-04T09:25:35.884Z,69.91
2022-12-04T09:28:02.483Z,69.78
2022-12-04T09:30:29.006Z,69.86
2022-12-04T09:32:55.615Z,69.84
2022-12-04T09:35:22.151Z,69.83
2022-12-04T09:37:48.632Z,69.97
2022-12-04T09:40:33.754Z,69.89
2022-12-04T09:43:03.834Z,69.79
2022-12-04T09:45:40.751Z,69.87
2022-12-04T09:48:11.417Z,69.77
2022-12-04T09:50:43.366Z,69.98
2022-12-04T09:53:15.944Z,69.76
2022-12-04T09:55:56.160Z,69.86
2022-12-04T09:58:38.062Z,70.03
2022-12-04T10:01:05.592Z,70.17
2022-12-04T10:03:32.452Z,70.03
2022-12-04T10:06:14.769Z,69.88
2022-12-04T10:08:44.660Z,69.93
2022-12-04T10:11:23.336Z,70.09
2022-12-04T10:14:13.100Z,70.10
2022-12-04T10:16:56.635Z,69.96
2022-12-04T10:19:32.256Z,70.30
2022-12-04T10:22:21.583Z,69.97
2022-12-04T10:25:02.861Z,70.01
2022-12-04T10:27:50.659Z,70.09
2022-12-04T10:30:21.567Z,70.24
2022-12-04T10:32:56.591Z,70.04
2022-12-04T10:35:26.855Z,69.93
2022-12-04T10:38:06.608Z,70.01
2022-12-04T10:40:36.564Z,70.15
2022-12-04T10:43:17.093Z,70.14
2022-12-04T10:45:43.741Z,70.16
2022-12-04T10:48:22.794Z,70.08
2022-12-04T10:50:49.376Z,70.30
2022-12-04T10:53:16.914Z,70.08
2022-12-04T10:55:43.398Z,70.37
2022-12-04T10:58:20.449Z,70.22
2022-12-04T11:01:05.082Z,70.25
2022-12-04T11:03:32.335Z,70.34
2022-12-04T11:06:03.701Z,70.05
2022-12-04T11:08:34.252Z,70.11
2022-12-04T11:11:04.168Z,70.35
2022-12-04T11:13:31.068Z,70.08
2022-12-04T11:15:58.807Z,70.04
2022-12-04T11:18:47.255Z,70.04
2022-12-04T11:21:22.850Z,70.27
2022-12-04T11:23:51.239Z,70.16
2022-12-04T11:26:41.790Z,70.31
2022-12-04T11:29:15.816Z,70.11
2022-12-04T11:31:48.966Z,70.03
2022-12-04T11:34:21.152Z,70.53
2022-12-04T11:36:53.816Z,70.20
2022-12-04T11:39:40.002Z,69.95
2022-12-04T11:42:18.045Z,70.43
2022-12-04T11:44:57.169Z,70.29
2022-12-04T11:47:26.918Z,70.25
2022-12-04T11:50:13.111Z,70.14
2022-12-04T11:52:56.012Z,70.28
2022-12-04T11:55:40.260Z,70.15
2022-12-04T11:58:30.336Z,70.49
2022-12-04T12:01:04.537Z,70.44
2022-12-04T12:03:51.462Z,70.49
2022-12-04T12:06:26.527Z,70.60
2022-12-04T12:09:03.211Z,70.52
2022-12-04T12:11:40.180Z,70.45
2022-12-04T12:14:28.548Z,70.43
2022-12-04T12:17:00.793Z,70.52
2022-12-04T12:19:49.205Z,70.28
2022-12-04T12:22:43.674Z,70.20
2022-12-04T12:25:13.227Z,70.55
2022-12-04T12:27:57.934Z,70.42
2022-12-04T12:30:28.876Z,70.10
2022-12-04T12:33:19.001Z,70.13
2022-12-04T12:35:49.295Z,70.34
2022-12-04T12:38:21.835Z,70.34
2022-12-04T12:41:14.194Z,70.10
2022-12-04T12:43:45.917Z,70.45
2022-12-04T12:46:26.407Z,70.27
2022-12-04T12:49:05.181Z,70.14
2022-12-04T12:51:47.034Z,70.21
2022-12-04T12:54:51.096Z,70.07
2022-12-04T12:57:28.205Z,70.26
2022-12-04T13:00:03.980Z,70.31
2022-12-04T13:02:39.640Z,70.40
2022-12-04T13:05:10.845Z,70.30
2022-12-04T13:08:08.362Z,70.23
2022-12-04T13:10:47.131Z,70.22
2022-12-04T13:13:33.846Z,70.21
2022-12-04T13:16:10.704Z,70.17
2022-12-04T13:18:45.131Z,70.10
2022-12-04T13:21:28.097Z,70.29
2022-12-04T13:24:16.361Z,70.23
2022-12-04T13:27:00.550Z,70.30
2022-12-04T13:29:29.850Z,70.48
2022-12-04T13:32:25.591Z,70.42
2022-12-04T13:35:21.594Z,70.24
2022-12-04T13:38:15.809Z,70.49
2022-12-04T13:40:48.055Z,70.41
2022-12-04T13:43:20.532Z,70.56
2022-12-04T13:45:49.883Z,70.51
2022-12-04T13:48:30.107Z,70.50
2022-12-04T13:51:15.140Z,70.41
2022-12-04T13:53:43.797Z,70.54
2022-12-04T13:56:28.536Z,70.50
2022-12-04T13:59:07.234Z,70.49
2022-12-04T14:01:41.076Z,70.22
2022-12-04T14:04:07.832Z,70.60
2022-12-04T14:06:39.361Z,70.54
2022-12-04T14:09:23.103Z,70.48
2022-12-04T14:12:01.624Z,70.36
2022-12-04T14:14:29.966Z,70.42
2022-12-04T14:16:59.458Z,70.71
2022-12-04T14:19:40.964Z,70.66
2022-12-04T14:22:25.631Z,70.51
2022-12-04T14:24:52.633Z,70.57
2022-12-04T14:27:44.805Z,70.48
2022-12-04T14:30:37.717Z,70.59
2022-12-04T14:33:21.490Z,70.36
2022-12-04T14:35:52.976Z,70.74
2022-12-04T14:38:21.712Z,70.46
2022-12-04T14:40:51.862Z,70.47
2022-12-04T14:43:21.669Z,70.44
2022-12-04T14:45:53.395Z,70.56
2022-12-04T14:48:38.597Z,70.56
2022-12-04T14:51:30.256Z,70.63
2022-12-04T14:54:03.465Z,70.53
2022-12-04T14:56:54.674Z,70.38
2022-12-04T14:59:24.120Z,70.73
2022-12-04T15:01:52.463Z,70.66
2022-12-04T15:04:26.189Z,70.45
2022-12-04T15:06:59.708Z,70.83
2022-12-04T15:09:45.779Z,70.81
2022-12-04T15:12:36.210Z,70.80
2022-12-04T15:15:14.221Z,70.76
2022-12-04T15:17:41.069Z,70.82
2022-12-04T15:20:18.724Z,71.04
2022-12-04T15:22:46.042Z,70.92
2022-12-04T15:25:22.543Z,70.55
2022-12-04T15:27:53.325Z,71.03
2022-12-04T15:30:23.013Z,71.00
2022-12-04T15:32:52.648Z,70.77
2022-12-04T15:35:25.483Z,70.71
2022-12-04T15:37:53.183Z,70.81
2022-12-04T15:40:25.565Z,70.91
2022-12-04T15:42:52.471Z,70.77
2022-12-04T15:45:18.890Z,70.70
2022-12-04T15:47:45.383Z,70.89
2022-12-04T15:50:17.596Z,70.92
2022-12-04T15:52:59.058Z,71.00
2022-12-04T15:55:27.973Z,71.11
2022-12-04T15:58:00.959Z,70.90
2022-12-04T16:00:32.647Z,70.92
2022-12-04T16:03:00.432Z,70.89
2022-12-04T16:05:36.524Z,71.10
2022-12-04T16:08:25.433Z,71.05
2022-12-04T16:11:01.122Z,70.94
2022-12-04T16:13:31.480Z,70.94
2022-12-04T16:16:01.763Z,71.09
2022-12-04T16:18:28.739Z,70.95
2022-12-04T16:20:55.514Z,71.23
2022-12-04T16:23:24.783Z,71.17
2022-12-04T16:25:53.635Z,71.20
2022-12-04T16:28:20.860Z,71.15
2022-12-04T16:30:47.642Z,70.78
2022-12-04T16:33:15.760Z,71.18
2022-12-04T16:35:42.397Z,70.80
2022-12-04T16:38:14.828Z,70.96
2022-12-04T16:40:41.673Z,71.09
2022-12-04T16:43:11.811Z,71.04
2022-12-04T16:45:38.381Z,70.97
2022-12-04T16:48:05.223Z,70.95
2022-12-04T16:50:31.755Z,71.21
2022-12-04T16:52:58.261Z,71.10
2022-12-04T16:55:31.081Z,71.09
2022-12-04T16:57:57.571Z,71.04
2022-12-04T17:00:24.426Z,71.04
2022-12-04T17:02:51.413Z,70.99
2022-12-04T17:05:23.951Z,70.95
2022-12-04T17:07:50.897Z,70.99
2022-12-04T17:10:23.582Z,71.20
2022-12-04T17:12:53.493Z,70.99
2022-12-04T17:15:20.001Z,71.30
2022-12-04T17:17:46.506Z,71.31
2022-12-04T17:20:15.734Z,71.16
2022-12-04T17:22:42.251Z,71.03
2022-12-04T17:25:10.411Z,71.37
2022-12-04T17:27:37.313Z,71.35
2022-12-04T17:30:06.030Z,70.86
2022-12-04T17:32:34.836Z,71.33
2022-12-04T17:35:02.461Z,71.23
2022-12-04T17:37:29.254Z,71.27
2022-12-04T17:39:55.873Z,71.43
2022-12-04T17:42:22.417Z,71.25
2022-12-04T17:44:48.982Z,71.53
2022-12-04T17:47:15.774Z,71.31
2022-12-04T17:49:42.912Z,71.55
2022-12-04T17:52:09.502Z,71.51
2022-12-04T17:54:36.039Z,71.32
2022-12-04T17:57:02.653Z,71.38
2022-12-04T17:59:29.289Z,71.30
2022-12-04T18:01:55.795Z,71.40
2022-12-04T18:04:22.436Z,71.49
2022-12-04T18:06:48.969Z,71.51
2022-12-04T18:09:16.814Z,71.56
2022-12-04T18:11:46.402Z,71.55
2022-12-04T18:14:16.525Z,71.28
2022-12-04T18:16:46.494Z,71.55
2022-12-04T18:19:14.377Z,71.22
2022-12-04T18:21:41.438Z,71.41
2022-12-04T18:24:08.061Z,71.68
2022-12-04T18:26:38.436Z,71.65
2022-12-04T18:29:06.073Z,71.61
2022-12-04T18:31:33.104Z,71.81
2022-12-04T18:34:00.216Z,71.55
2022-12-04T18:36:30.571Z,71.37
2022-12-04T18:38:59.905Z,71.52
2022-12-04T18:41:27.458Z,71.58
2022-12-04T18:43:54.335Z,71.41
2022-12-04T18:46:21.793Z,71.43
2022-12-04T18:48:49.542Z,71.55
2022-12-04T18:51:29.390Z,71.30
2022-12-04T18:53:59.280Z,71.74
2022-12-04T18:56:26.320Z,71.70
2022-12-04T18:59:08.140Z,71.36
2022-12-04T19:01:35.325Z,71.56
2022-12-04T19:04:05.202Z,71.43
2022-12-04T19:06:40.176Z,71.84
2022-12-04T19:09:09.637Z,71.62
2022-12-04T19:11:36.988Z,71.64
2022-12-04T19:14:10.296Z,71.94
2022-12-04T19:16:43.632Z,71.62
2022-12-04T19:19:14.477Z,71.85
2022-12-04T19:21:41.717Z,71.59
2022-12-04T19:24:10.360Z,71.85
2022-12-04T19:26:37.226Z,71.75
2022-12-04T19:29:04.550Z,71.81
2022-12-04T19:31:33.864Z,71.67
2022-12-04T19:34:01.199Z,71.80
2022-12-04T19:36:30.071Z,71.83
2022-12-04T19:38:57.840Z,72.01
2022-12-04T19:41:26.697Z,71.83
2022-12-04T19:43:56.728Z,71.86
2022-12-04T19:46:27.359Z,71.39
2022-12-04T19:48:56.873Z,71.69
2022-12-04T19:51:24.324Z,71.73
2022-12-04T19:53:51.487Z,71.74
2022-12-04T19:56:24.458Z,72.05
2022-12-04T19:58:57.686Z,71.79
2022-12-04T20:01:26.679Z,72.05
2022-12-04T20:03:53.625Z,72.10
2022-12-04T20:06:23.161Z,72.06
2022-12-04T20:09:01.483Z,71.93
2022-12-04T20:11:29.928Z,72.05
2022-12-04T20:13:59.613Z,71.72
2022-12-04T20:16:28.175Z,72.01
2022-12-04T20:18:54.922Z,72.06
2022-12-04T20:21:26.216Z,71.93
2022-12-04T20:23:54.011Z,72.04
2022-12-04T20:26:26.529Z,71.85
2022-12-04T20:28:55.218Z,71.97
2022-12-04T20:31:33.485Z,72.08
2022-12-04T20:34:01.965Z,71.85
2022-12-04T20:36:30.163Z,72.00
2022-12-04T20:38:58.869Z,71.84
2022-12-04T20:41:29.605Z,71.92
2022-12-04T20:43:59.680Z,72.08
2022-12-04T20:46:37.335Z,71.97
2022-12-04T20:49:07.235Z,72.03
2022-12-04T20:51:39.773Z,71.89
2022-12-04T20:54:08.029Z,72.04
2022-12-04T20:56:36.815Z,71.89
2022-12-04T20:59:08.803Z,72.22
2022-12-04T21:01:36.156Z,71.94
2022-12-04T21:04:04.256Z,72.30
2022-12-04T21:06:36.656Z,71.87
2022-12-04T21:09:09.127Z,71.95
2022-12-04T21:12:03.594Z,72.29
2022-12-04T21:14:49.851Z,71.84
2022-12-04T21:17:18.883Z,72.12
2022-12-04T21:19:50.805Z,71.80
2022-12-04T21:22:18.969Z,71.93
2022-12-04T21:24:45.703Z,72.24
2022-12-04T21:27:18.939Z,71.87
2022-12-04T21:29:48.672Z,72.12
2022-12-04T21:32:15.826Z,72.27
2022-12-04T21:34:42.366Z,71.94
2022-12-04T21:37:09.042Z,72.16
2022-12-04T21:39:36.948Z,72.07
2022-12-04T21:42:22.668Z,71.84
2022-12-04T21:44:49.279Z,72.17
2022-12-04T21:47:15.926Z,71.87
2022-12-04T21:49:42.504Z,72.15
2022-12-04T21:52:09.188Z,72.05
2022-12-04T21:54:35.899Z,72.01
2022-12-04T21:57:02.573Z,71.91
2022-12-04T21:59:29.167Z,72.01
2022-12-04T22:01:55.957Z,71.98
2022-12-04T22:04:23.057Z,72.29
2022-12-04T22:06:49.856Z,72.07
2022-12-04T22:09:16.956Z,71.89
2022-12-04T22:11:44.123Z,72.19
2022-12-04T22:14:11.833Z,72.17
2022-12-04T22:16:42.782Z,71.86
2022-12-04T22:19:11.752Z,72.10
2022-12-04T22:21:39.135Z,72.22
2022-12-04T22:24:06.211Z,71.92
2022-12-04T22:26:33.221Z,72.16
2022-12-04T22:28:59.961Z,71.81
2022-12-04T22:31:28.191Z,72.18
2022-12-04T22:33:58.060Z,71.85
2022-12-04T22:36:30.388Z,71.96
2022-12-04T22:39:12.647Z,71.90
2022-12-04T22:41:39.276Z,71.87
2022-12-04T22:44:06.076Z,72.14
2022-12-04T22:46:33.096Z,72.08
2022-12-04T22:49:00.569Z,72.13
2022-12-04T22:51:28.298Z,71.88
2022-12-04T22:53:58.405Z,72.14
2022-12-04T22:56:28.499Z,71.90
2022-12-04T22:58:56.706Z,72.37
2022-12-04T23:01:28.924Z,71.96
2022-12-04T23:03:56.508Z,72.28
2022-12-04T23:06:24.593Z,71.99
2022-12-04T23:08:56.540Z,72.23
2022-12-04T23:11:24.585Z,72.13
2022-12-04T23:14:05.619Z,72.19
2022-12-04T23:16:34.360Z,72.33
2022-12-04T23:19:01.143Z,72.16
2022-12-04T23:21:28.322Z,72.20
2022-12-04T23:23:56.962Z,72.15
2022-12-04T23:26:30.783Z,72.14
2022-12-04T23:28:58.303Z,72.08
2022-12-04T23:31:26.111Z,72.24
2022-12-04T23:33:53.271Z,72.63
2022-12-04T23:36:20.533Z,72.47
2022-12-04T23:38:47.718Z,72.44
2022-12-04T23:41:19.877Z,72.40
2022-12-04T23:43:48.494Z,72.45
2022-12-04T23:46:22.066Z,72.63
2022-12-04T23:48:49.589Z,72.72
2022-12-04T23:51:18.781Z,72.68
2022-12-04T23:53:45.840Z,72.66
2022-12-04T23:56:15.432Z,72.38
2022-12-04T23:58:43.751Z,72.43
